< < Back
Terminal Aerodrome Forecast


Current Version              Previous Versions:   1  2  3  4  5  6  7  8  9  

Terminal Aerodrome Forecast

845
FTUS44 KMRX 260520
TAFTYS
TAF
KTYS 260520Z 2606/2706 20003KT P6SM SCT080 BKN120
     FM261500 24005KT P6SM SCT050 BKN150
     FM262000 27006KT P6SM VCTS BKN060CB
     FM270300 VRB04KT P6SM SCT070 SCT100 BKN150=

Latest METAR

984
SAUS80 KWBC 261900 RRA
MTRTYS
METAR KTYS 261853Z VRB04KT 10SM FEW045 SCT160 SCT250 34/22 A3001 RMK AO2
SLP150 T03390217


USA.gov is the U.S. government's official web portal to all federal, state and local government web resources and services.